createdAt,value
2018-07-20T00:00:08.753Z,101424.86
2018-07-20T00:02:48.881Z,101435.67
2018-07-20T00:05:35.020Z,101432.31
2018-07-20T00:08:13.199Z,101426.89
2018-07-20T00:10:49.612Z,101421.95
2018-07-20T00:16:09.997Z,101422.38
2018-07-20T00:18:39.605Z,101421.94
2018-07-20T00:21:10.241Z,101421.94
2018-07-20T00:29:44.944Z,101418.61
2018-07-20T00:32:17.183Z,101428.23
2018-07-20T00:34:49.658Z,101419.44
2018-07-20T00:37:30.965Z,101418.57
2018-07-20T00:40:01.243Z,101421.88
2018-07-20T00:42:30.698Z,101421.45
2018-07-20T00:45:00.187Z,101414.34
2018-07-20T00:47:29.598Z,101417.68
2018-07-20T00:49:58.677Z,101418.52
2018-07-20T00:52:28.048Z,101418.45
2018-07-20T00:54:57.462Z,101418.45
2018-07-20T00:57:26.786Z,101420.54
2018-07-20T00:59:56.178Z,101419.25
2018-07-20T01:02:25.543Z,101417.05
2018-07-20T01:04:55.110Z,101424.92
2018-07-20T01:07:24.478Z,101425.75
2018-07-20T01:09:53.821Z,101424.11
2018-07-20T01:12:23.218Z,101424.09
2018-07-20T01:14:52.714Z,101430.30
2018-07-20T01:17:22.102Z,101425.24
2018-07-20T01:19:51.497Z,101422.30
2018-07-20T01:22:20.902Z,101419.58
2018-07-20T01:24:50.250Z,101416.30
2018-07-20T01:27:19.420Z,101425.16
2018-07-20T01:29:48.799Z,101421.88
2018-07-20T01:32:18.318Z,101414.36
2018-07-20T01:34:47.725Z,101411.81
2018-07-20T01:37:17.109Z,101409.76
2018-07-20T01:39:46.538Z,101407.25
2018-07-20T01:42:15.967Z,101414.41
2018-07-20T01:44:45.767Z,101402.76
2018-07-20T01:47:15.137Z,101401.95
2018-07-20T01:49:44.469Z,101403.16
2018-07-20T01:52:13.856Z,101400.64
2018-07-20T01:54:43.251Z,101405.69
2018-07-20T01:57:12.365Z,101404.41
2018-07-20T01:59:41.762Z,101401.47
2018-07-20T02:02:11.886Z,101395.19
2018-07-20T02:04:41.280Z,101393.52
2018-07-20T02:07:10.597Z,101393.90
2018-07-20T02:09:40.007Z,101401.01
2018-07-20T02:12:09.665Z,101393.09
2018-07-20T02:14:39.077Z,101393.90
2018-07-20T02:17:09.144Z,101399.74
2018-07-20T02:19:38.469Z,101399.66
2018-07-20T02:22:07.913Z,101397.61
2018-07-20T02:24:37.326Z,101393.07
2018-07-20T02:27:06.666Z,101386.03
2018-07-20T02:29:36.035Z,101389.80
2018-07-20T02:32:05.990Z,101385.66
2018-07-20T02:34:35.338Z,101375.67
2018-07-20T02:37:04.779Z,101379.45
2018-07-20T02:39:34.205Z,101374.44
2018-07-20T02:42:03.569Z,101379.03
2018-07-20T02:44:32.722Z,101374.05
2018-07-20T02:47:02.114Z,101372.41
2018-07-20T02:49:31.462Z,101376.98
2018-07-20T02:52:01.018Z,101378.67
2018-07-20T02:54:30.449Z,101376.16
2018-07-20T02:56:59.822Z,101379.48
2018-07-20T03:02:32.716Z,101381.54
2018-07-20T03:05:08.126Z,101375.28
2018-07-20T03:07:37.594Z,101376.14
2018-07-20T03:13:02.799Z,101366.51
2018-07-20T03:15:41.846Z,101373.22
2018-07-20T03:18:14.950Z,101370.26
2018-07-20T03:20:44.411Z,101374.01
2018-07-20T03:23:13.830Z,101376.93
2018-07-20T03:25:43.213Z,101369.80
2018-07-20T03:28:12.701Z,101374.41
2018-07-20T03:30:42.079Z,101371.52
2018-07-20T03:33:54.389Z,101374.45
2018-07-20T03:36:23.741Z,101374.06
2018-07-20T03:38:53.169Z,101375.68
2018-07-20T03:41:22.522Z,101373.61
2018-07-20T03:45:09.895Z,101373.63
2018-07-20T03:47:39.283Z,101374.07
2018-07-20T03:50:08.660Z,101371.12
2018-07-20T03:55:46.266Z,101367.30
2018-07-20T03:58:15.658Z,101366.50
2018-07-20T04:00:45.027Z,101366.98
2018-07-20T04:03:14.768Z,101372.77
2018-07-20T04:05:44.756Z,101370.73
2018-07-20T04:08:15.297Z,101367.79
2018-07-20T04:10:44.986Z,101364.42
2018-07-20T04:13:14.415Z,101364.86
2018-07-20T04:15:44.061Z,101361.52
2018-07-20T04:18:14.679Z,101356.95
2018-07-20T04:22:13.483Z,101353.64
2018-07-20T04:24:43.126Z,101352.02
2018-07-20T04:27:12.239Z,101348.23
2018-07-20T04:29:41.618Z,101352.02
2018-07-20T04:32:11.069Z,101352.00
2018-07-20T04:34:40.835Z,101355.78
2018-07-20T04:37:11.222Z,101349.92
2018-07-20T04:39:40.674Z,101363.74
2018-07-20T04:42:10.222Z,101350.75
2018-07-20T04:44:39.724Z,101353.72
2018-07-20T04:47:09.094Z,101353.33
2018-07-20T04:49:38.833Z,101357.92
2018-07-20T04:52:08.213Z,101355.81
2018-07-20T04:54:38.623Z,101352.47
2018-07-20T04:57:08.244Z,101350.38
2018-07-20T04:59:38.297Z,101353.31
2018-07-20T05:02:08.758Z,101350.80
2018-07-20T05:04:38.106Z,101352.88
2018-07-20T05:07:08.267Z,101357.08
2018-07-20T05:09:37.607Z,101359.18
2018-07-20T05:12:08.847Z,101349.53
2018-07-20T05:14:41.042Z,101354.55
2018-07-20T05:17:10.538Z,101349.53
2018-07-20T05:19:40.759Z,101352.05
2018-07-20T05:22:10.785Z,101355.38
2018-07-20T05:24:40.206Z,101354.12
2018-07-20T05:27:09.581Z,101350.33
2018-07-20T05:29:39.657Z,101350.78
2018-07-20T05:32:09.953Z,101358.24
2018-07-20T05:34:40.370Z,101351.13
2018-07-20T05:37:10.310Z,101348.17
2018-07-20T05:39:39.936Z,101353.65
2018-07-20T05:42:09.402Z,101348.56
2018-07-20T05:44:38.823Z,101351.06
2018-07-20T05:47:08.447Z,101356.49
2018-07-20T05:49:38.314Z,101356.47
2018-07-20T05:52:07.779Z,101353.97
2018-07-20T05:54:37.125Z,101357.30
2018-07-20T05:57:06.546Z,101349.28
2018-07-20T05:59:38.170Z,101346.30
2018-07-20T06:02:07.539Z,101350.34
2018-07-20T06:04:36.939Z,101349.52
2018-07-20T06:07:07.126Z,101351.22
2018-07-20T06:09:36.569Z,101346.08
2018-07-20T06:12:07.350Z,101345.60
2018-07-20T06:14:37.690Z,101349.33
2018-07-20T06:17:07.414Z,101347.22
2018-07-20T06:19:37.686Z,101356.98
2018-07-20T06:22:07.589Z,101346.38
2018-07-20T06:24:36.776Z,101354.69
2018-07-20T06:27:06.173Z,101355.00
2018-07-20T06:29:35.612Z,101353.30
2018-07-20T06:32:04.976Z,101348.67
2018-07-20T06:34:34.379Z,101349.42
2018-07-20T06:37:04.168Z,101351.41
2018-07-20T06:39:34.525Z,101349.31
2018-07-20T06:42:05.526Z,101352.19
2018-07-20T06:44:35.959Z,101342.53
2018-07-20T06:47:06.098Z,101349.09
2018-07-20T06:49:37.138Z,101352.78
2018-07-20T06:52:06.574Z,101353.17
2018-07-20T06:54:39.857Z,101351.46
2018-07-20T06:57:09.969Z,101351.91
2018-07-20T06:59:39.740Z,101356.34
2018-07-20T07:02:10.445Z,101354.23
2018-07-20T07:04:39.830Z,101350.69
2018-07-20T07:07:09.641Z,101353.91
2018-07-20T07:09:40.590Z,101343.99
2018-07-20T07:12:09.994Z,101343.08
2018-07-20T07:14:39.353Z,101336.30
2018-07-20T07:17:09.062Z,101343.99
2018-07-20T07:19:38.574Z,101346.31
2018-07-20T07:22:08.135Z,101343.15
2018-07-20T07:24:37.777Z,101338.86
2018-07-20T07:27:08.641Z,101353.25
2018-07-20T07:29:38.157Z,101352.96
2018-07-20T07:32:09.022Z,101354.17
2018-07-20T07:34:38.503Z,101353.27
2018-07-20T07:37:07.842Z,101354.02
2018-07-20T07:39:37.206Z,101350.45
2018-07-20T07:42:07.299Z,101348.81
2018-07-20T07:44:37.326Z,101344.60
2018-07-20T07:47:06.706Z,101345.80
2018-07-20T07:49:36.194Z,101338.33
2018-07-20T07:52:05.689Z,101339.28
2018-07-20T07:54:40.070Z,101341.17
2018-07-20T07:57:09.611Z,101341.83
2018-07-20T07:59:39.467Z,101340.56
2018-07-20T08:02:08.923Z,101335.95
2018-07-20T08:04:38.368Z,101334.63
2018-07-20T08:07:07.789Z,101329.37
2018-07-20T08:09:37.171Z,101329.67
2018-07-20T08:12:07.699Z,101328.87
2018-07-20T08:14:38.213Z,101330.25
2018-07-20T08:17:08.418Z,101326.22
2018-07-20T08:19:38.729Z,101332.89
2018-07-20T08:22:08.135Z,101324.81
2018-07-20T08:24:37.978Z,101316.41
2018-07-20T08:27:07.433Z,101318.88
2018-07-20T08:29:36.909Z,101317.98
2018-07-20T08:32:07.676Z,101318.66
2018-07-20T08:34:37.011Z,101305.02
2018-07-20T08:37:07.755Z,101308.95
2018-07-20T08:39:37.120Z,101310.69
2018-07-20T08:42:06.500Z,101306.59
2018-07-20T08:44:35.989Z,101304.05
2018-07-20T08:47:05.329Z,101301.81
2018-07-20T08:49:34.730Z,101302.05
2018-07-20T08:52:04.214Z,101297.07
2018-07-20T08:54:33.679Z,101294.48
2018-07-20T08:57:03.101Z,101307.72
2018-07-20T08:59:32.580Z,101301.30
2018-07-20T09:02:03.037Z,101302.14
2018-07-20T09:04:33.033Z,101303.06
2018-07-20T09:07:03.164Z,101300.09
2018-07-20T09:09:32.867Z,101301.14
2018-07-20T09:12:02.399Z,101296.42
2018-07-20T09:14:32.287Z,101293.16
2018-07-20T09:17:04.317Z,101292.62
2018-07-20T09:19:33.686Z,101296.09
2018-07-20T09:22:03.329Z,101293.48
2018-07-20T09:24:34.390Z,101286.80
2018-07-20T09:27:03.862Z,101285.16
2018-07-20T09:29:34.695Z,101285.66
2018-07-20T09:32:05.242Z,101280.84
2018-07-20T09:34:34.906Z,101282.34
2018-07-20T09:37:04.681Z,101280.91
2018-07-20T09:39:34.536Z,101273.63
2018-07-20T09:42:04.937Z,101275.06
2018-07-20T09:44:34.374Z,101271.34
2018-07-20T09:47:04.037Z,101271.14
2018-07-20T09:49:34.286Z,101264.80
2018-07-20T09:52:04.105Z,101267.11
2018-07-20T09:54:33.573Z,101263.55
2018-07-20T09:57:03.258Z,101272.05
2018-07-20T09:59:32.684Z,101275.63
2018-07-20T10:02:02.186Z,101272.59
2018-07-20T10:04:31.746Z,101283.68
2018-07-20T10:07:02.157Z,101270.03
2018-07-20T10:09:31.692Z,101265.88
2018-07-20T10:12:01.200Z,101258.76
2018-07-20T10:14:30.384Z,101262.12
2018-07-20T10:17:00.943Z,101260.85
2018-07-20T10:19:30.394Z,101259.41
2018-07-20T10:22:00.252Z,101261.89
2018-07-20T10:24:29.834Z,101256.40
2018-07-20T10:26:59.894Z,101259.63
2018-07-20T10:29:29.304Z,101261.66
2018-07-20T10:31:59.095Z,101257.08
2018-07-20T10:34:28.453Z,101257.23
2018-07-20T10:36:59.269Z,101248.31
2018-07-20T10:39:29.732Z,101250.98
2018-07-20T10:42:00.051Z,101253.13
2018-07-20T10:44:29.462Z,101245.03
2018-07-20T10:46:59.926Z,101243.02
2018-07-20T10:49:29.522Z,101242.17
2018-07-20T10:51:59.016Z,101237.57
2018-07-20T10:54:28.560Z,101241.86
2018-07-20T10:57:00.062Z,101242.29
2018-07-20T10:59:29.901Z,101237.04
2018-07-20T11:02:01.003Z,101237.44
2018-07-20T11:04:30.449Z,101235.26
2018-07-20T11:07:00.444Z,101226.25
2018-07-20T11:09:29.777Z,101237.39
2018-07-20T11:11:59.504Z,101236.59
2018-07-20T11:14:29.467Z,101229.71
2018-07-20T11:16:59.156Z,101235.34
2018-07-20T11:19:29.847Z,101229.64
2018-07-20T11:21:59.337Z,101238.70
2018-07-20T11:24:28.981Z,101225.81
2018-07-20T11:26:59.133Z,101227.33
2018-07-20T11:29:28.667Z,101217.24
2018-07-20T11:31:58.097Z,101222.66
2018-07-20T11:34:28.336Z,101210.47
2018-07-20T11:36:59.201Z,101217.70
2018-07-20T11:39:29.260Z,101197.16
2018-07-20T11:42:00.263Z,101209.15
2018-07-20T11:44:34.020Z,101213.37
2018-07-20T11:47:03.735Z,101206.87
2018-07-20T11:49:33.658Z,101201.38
2018-07-20T11:52:07.153Z,101199.43
2018-07-20T11:54:36.621Z,101196.30
2018-07-20T11:57:06.018Z,101190.58
2018-07-20T11:59:35.729Z,101187.22
2018-07-20T12:02:05.147Z,101182.81
2018-07-20T12:04:34.638Z,101178.78
2018-07-20T12:07:04.312Z,101177.74
2018-07-20T12:09:33.814Z,101177.11
2018-07-20T12:12:04.233Z,101174.07
2018-07-20T12:14:33.837Z,101171.81
2018-07-20T12:17:03.197Z,101174.69
2018-07-20T12:19:32.699Z,101168.87
2018-07-20T12:22:02.139Z,101160.86
2018-07-20T12:24:31.564Z,101161.67
2018-07-20T12:27:01.146Z,101151.35
2018-07-20T12:29:30.522Z,101156.23
2018-07-20T12:32:00.788Z,101155.37
2018-07-20T12:34:30.269Z,101145.55
2018-07-20T12:37:01.046Z,101143.47
2018-07-20T12:39:32.466Z,101131.41
2018-07-20T12:42:02.044Z,101133.57
2018-07-20T12:44:31.625Z,101132.03
2018-07-20T12:47:01.059Z,101131.25
2018-07-20T12:49:30.911Z,101131.54
2018-07-20T12:52:00.250Z,101132.73
2018-07-20T12:54:30.233Z,101130.57
2018-07-20T12:56:59.602Z,101126.77
2018-07-20T12:59:29.037Z,101129.06
2018-07-20T13:01:59.602Z,101123.90
2018-07-20T13:04:29.725Z,101129.00
2018-07-20T13:06:59.097Z,101124.25
2018-07-20T13:09:29.309Z,101116.84
2018-07-20T13:11:58.789Z,101112.91
2018-07-20T13:14:29.122Z,101107.41
2018-07-20T13:16:59.470Z,101104.30
2018-07-20T13:19:30.017Z,101106.01
2018-07-20T13:21:59.508Z,101103.98
2018-07-20T13:24:30.874Z,101102.50
2018-07-20T13:27:01.399Z,101095.69
2018-07-20T13:29:30.831Z,101092.81
2018-07-20T13:32:00.262Z,101092.94
2018-07-20T13:34:29.667Z,101090.84
2018-07-20T13:36:59.133Z,101090.73
2018-07-20T13:39:29.019Z,101089.23
2018-07-20T13:41:58.677Z,101087.37
2018-07-20T13:44:28.162Z,101083.25
2018-07-20T13:46:57.574Z,101082.89
2018-07-20T13:49:27.063Z,101075.81
2018-07-20T13:51:56.477Z,101075.04
2018-07-20T13:54:26.518Z,101073.32
2018-07-20T13:56:56.058Z,101067.87
2018-07-20T13:59:25.609Z,101060.76
2018-07-20T14:01:55.048Z,101059.30
2018-07-20T14:04:25.342Z,101052.38
2018-07-20T14:06:55.501Z,101054.30
2018-07-20T14:09:25.212Z,101058.31
2018-07-20T14:11:59.537Z,101050.91
2018-07-20T14:18:00.251Z,101048.79
2018-07-20T14:20:39.412Z,101034.92
2018-07-20T14:28:38.665Z,101033.45
2018-07-20T14:31:17.144Z,101036.61
2018-07-20T14:34:11.059Z,101025.41
2018-07-20T14:36:49.079Z,101025.67
2018-07-20T14:39:19.536Z,101027.17
2018-07-20T14:41:48.906Z,101023.11
2018-07-20T14:44:20.049Z,101018.28
2018-07-20T14:46:49.470Z,101017.01
2018-07-20T14:49:19.271Z,101016.81
2018-07-20T14:51:48.761Z,101020.46
2018-07-20T14:54:18.273Z,101010.92
2018-07-20T14:56:48.112Z,101011.14
2018-07-20T14:59:17.543Z,101010.33
2018-07-20T15:01:47.250Z,101002.20
2018-07-20T15:04:16.742Z,101007.84
2018-07-20T15:06:46.262Z,100998.52
2018-07-20T15:09:15.644Z,101001.02
2018-07-20T15:11:45.662Z,100998.06
2018-07-20T15:14:15.062Z,100990.86
2018-07-20T15:16:44.477Z,100998.79
2018-07-20T15:19:14.989Z,101005.16
2018-07-20T15:21:44.734Z,101001.00
2018-07-20T15:24:14.227Z,100995.97
2018-07-20T15:26:43.745Z,100993.02
2018-07-20T15:29:13.225Z,100998.01
2018-07-20T15:31:42.640Z,101002.52
2018-07-20T15:34:12.569Z,100995.00
2018-07-20T15:36:41.937Z,100996.61
2018-07-20T15:39:12.518Z,101003.56
2018-07-20T15:41:41.871Z,101001.53
2018-07-20T15:44:11.833Z,101006.23
2018-07-20T15:46:41.433Z,101002.39
2018-07-20T15:49:10.747Z,101001.47
2018-07-20T15:53:35.206Z,100999.95
2018-07-20T15:54:11.205Z,100998.16
2018-07-20T15:56:40.719Z,100992.09
2018-07-20T15:59:10.150Z,100995.76
2018-07-20T16:01:39.687Z,100997.42
2018-07-20T16:04:09.290Z,100990.26
2018-07-20T16:06:39.081Z,100981.17
2018-07-20T16:09:11.772Z,100980.58
2018-07-20T16:11:41.438Z,100977.02
2018-07-20T16:14:13.705Z,100975.23
2018-07-20T16:16:43.145Z,100972.42
2018-07-20T16:19:13.545Z,100973.20
2018-07-20T16:21:43.045Z,100965.35
2018-07-20T16:24:12.498Z,100964.85
2018-07-20T16:26:41.909Z,100968.81
2018-07-20T16:29:14.430Z,100967.50
2018-07-20T16:31:43.873Z,100959.27
2018-07-20T16:34:14.152Z,100952.94
2018-07-20T16:36:44.402Z,100951.37
2018-07-20T16:39:14.266Z,100947.27
2018-07-20T16:41:43.935Z,100943.69
2018-07-20T16:44:13.405Z,100944.73
2018-07-20T16:46:42.565Z,100938.25
2018-07-20T16:49:11.966Z,100942.13
2018-07-20T16:51:43.304Z,100942.15
2018-07-20T16:54:13.637Z,100933.26
2018-07-20T16:56:43.454Z,100934.86
2018-07-20T16:59:13.188Z,100925.23
2018-07-20T17:01:46.690Z,100930.69
2018-07-20T17:04:16.187Z,100922.16
2018-07-20T17:06:46.102Z,100917.80
2018-07-20T17:09:16.152Z,100917.89
2018-07-20T17:11:46.249Z,100916.31
2018-07-20T17:14:15.674Z,100917.12
2018-07-20T17:16:45.772Z,100921.61
2018-07-20T17:19:15.915Z,100929.94
2018-07-20T17:21:46.514Z,100927.50
2018-07-20T17:24:16.270Z,100930.88
2018-07-20T17:26:46.759Z,100921.92
2018-07-20T17:29:22.267Z,100929.79
2018-07-20T17:31:52.641Z,100928.73
2018-07-20T17:34:22.048Z,100927.09
2018-07-20T17:36:51.462Z,100927.63
2018-07-20T17:39:20.980Z,100925.72
2018-07-20T17:41:50.131Z,100931.12
2018-07-20T17:44:19.558Z,100925.42
2018-07-20T17:46:49.042Z,100926.36
2018-07-20T17:49:23.181Z,100927.20
2018-07-20T17:51:52.562Z,100922.64
2018-07-20T17:54:23.062Z,100934.53
2018-07-20T17:56:52.502Z,100939.65
2018-07-20T17:59:22.125Z,100938.48
2018-07-20T18:01:51.608Z,100945.83
2018-07-20T18:04:22.494Z,100936.34
2018-07-20T18:06:53.617Z,100940.43
2018-07-20T18:09:23.414Z,100939.61
2018-07-20T18:11:52.747Z,100934.24
2018-07-20T18:14:22.557Z,100931.19
2018-07-20T18:16:52.145Z,100934.87
2018-07-20T18:19:21.538Z,100934.33
2018-07-20T18:21:51.229Z,100930.77
2018-07-20T18:24:21.352Z,100943.34
2018-07-20T18:26:50.809Z,100940.52
2018-07-20T18:29:20.197Z,100937.73
2018-07-20T18:31:49.887Z,100940.83
2018-07-20T18:34:20.038Z,100942.59
2018-07-20T18:36:49.638Z,100943.06
2018-07-20T18:39:19.029Z,100948.80
2018-07-20T18:41:48.433Z,100943.02
2018-07-20T18:44:17.849Z,100941.88
2018-07-20T18:46:47.653Z,100940.75
2018-07-20T18:49:18.628Z,100946.34
2018-07-20T18:51:47.922Z,100942.34
2018-07-20T18:54:17.104Z,100950.88
2018-07-20T18:56:46.483Z,100948.80
2018-07-20T18:59:16.139Z,100951.29
2018-07-20T19:01:45.447Z,100955.98
2018-07-20T19:04:14.785Z,100958.32
2018-07-20T19:06:45.113Z,100955.48
2018-07-20T19:09:14.514Z,100959.23
2018-07-20T19:11:44.780Z,100957.19
2018-07-20T19:14:14.258Z,100956.41
2018-07-20T19:16:43.802Z,100955.64
2018-07-20T19:19:13.291Z,100954.45
2018-07-20T19:21:42.707Z,100953.45
2018-07-20T19:24:12.478Z,100956.11
2018-07-20T19:26:42.034Z,100952.56
2018-07-20T19:29:11.518Z,100946.89
2018-07-20T19:31:42.331Z,100945.48
2018-07-20T19:34:11.870Z,100953.05
2018-07-20T19:36:41.259Z,100952.78
2018-07-20T19:39:11.833Z,100959.28
2018-07-20T19:41:41.237Z,100955.98
2018-07-20T19:44:13.201Z,100958.69
2018-07-20T19:46:43.497Z,100955.41
2018-07-20T19:49:12.969Z,100958.59
2018-07-20T19:51:42.386Z,100965.34
2018-07-20T19:54:12.029Z,100964.38
2018-07-20T19:56:42.754Z,100961.84
2018-07-20T19:59:12.143Z,100966.25
2018-07-20T20:01:42.361Z,100970.76
2018-07-20T20:04:11.787Z,100967.45
2018-07-20T20:06:41.198Z,100971.71
2018-07-20T20:09:12.015Z,100973.51
2018-07-20T20:11:41.644Z,100969.40
2018-07-20T20:14:11.765Z,100974.56
2018-07-20T20:16:41.500Z,100978.61
2018-07-20T20:19:11.413Z,100982.48
2018-07-20T20:21:41.333Z,100988.80
2018-07-20T20:24:10.816Z,100988.55
2018-07-20T20:26:40.856Z,100989.16
2018-07-20T20:29:10.377Z,100989.73
2018-07-20T20:31:39.842Z,100988.55
2018-07-20T20:34:09.459Z,100992.59
2018-07-20T20:36:39.057Z,100991.61
2018-07-20T20:39:12.007Z,100996.13
2018-07-20T20:41:41.889Z,100995.16
2018-07-20T20:44:12.430Z,100998.67
2018-07-20T20:46:41.881Z,100999.84
2018-07-20T20:49:12.305Z,100994.27
2018-07-20T20:51:41.969Z,100996.36
2018-07-20T20:54:11.431Z,100997.44
2018-07-20T20:56:40.909Z,100997.56
2018-07-20T20:59:10.355Z,101001.16
2018-07-20T21:01:40.375Z,101001.81
2018-07-20T21:04:09.885Z,101002.89
2018-07-20T21:06:39.262Z,100998.88
2018-07-20T21:09:09.727Z,100997.06
2018-07-20T21:11:40.137Z,100996.94
2018-07-20T21:14:09.667Z,100996.51
2018-07-20T21:16:39.383Z,100995.90
2018-07-20T21:19:09.127Z,101001.64
2018-07-20T21:21:39.207Z,101001.03
2018-07-20T21:24:09.334Z,101001.44
2018-07-20T21:26:39.837Z,101003.06
2018-07-20T21:29:09.351Z,101001.03
2018-07-20T21:31:38.810Z,101002.39
2018-07-20T21:34:08.558Z,101004.18
2018-07-20T21:36:38.072Z,101000.89
2018-07-20T21:39:12.042Z,101002.58
2018-07-20T21:41:42.926Z,101001.23
2018-07-20T21:44:13.438Z,101002.03
2018-07-20T21:46:42.857Z,101006.28
2018-07-20T21:49:12.289Z,101010.23
2018-07-20T21:51:43.211Z,101007.19
2018-07-20T21:54:12.614Z,101000.51
2018-07-20T21:56:42.387Z,101014.03
2018-07-20T21:59:11.825Z,101014.53
2018-07-20T22:01:41.224Z,101015.30
2018-07-20T22:04:10.787Z,101018.03
2018-07-20T22:06:40.171Z,101017.73
2018-07-20T22:09:11.129Z,101020.47
2018-07-20T22:11:41.612Z,101027.98
2018-07-20T22:14:23.287Z,101021.56
2018-07-20T22:16:52.709Z,101018.09
2018-07-20T22:19:23.402Z,101018.14
2018-07-20T22:21:52.971Z,101014.71
2018-07-20T22:24:22.452Z,101016.47
2018-07-20T22:26:51.990Z,101017.56
2018-07-20T22:29:21.558Z,101014.71
2018-07-20T22:31:51.167Z,101007.89
2018-07-20T22:34:20.564Z,101009.48
2018-07-20T22:36:50.099Z,101006.08
2018-07-20T22:39:19.560Z,101012.55
2018-07-20T22:41:49.249Z,101011.24
2018-07-20T22:44:18.624Z,101010.45
2018-07-20T22:46:52.895Z,101014.64
2018-07-20T22:52:01.868Z,101017.28
2018-07-20T22:54:31.377Z,101012.88
2018-07-20T22:57:00.828Z,101011.48
2018-07-20T22:59:30.309Z,101008.87
2018-07-20T23:01:59.847Z,101007.70
2018-07-20T23:04:29.238Z,101004.06
2018-07-20T23:06:59.209Z,101005.83
2018-07-20T23:09:28.610Z,101000.66
2018-07-20T23:11:57.949Z,100997.42
2018-07-20T23:14:27.608Z,100992.86
2018-07-20T23:16:57.076Z,100991.09
2018-07-20T23:19:26.514Z,100988.57
2018-07-20T23:21:56.568Z,100987.31
2018-07-20T23:24:26.060Z,100980.87
2018-07-20T23:26:55.542Z,100977.88
2018-07-20T23:29:24.887Z,100974.05
2018-07-20T23:31:54.238Z,100979.14
2018-07-20T23:34:24.603Z,100974.42
2018-07-20T23:36:54.206Z,100979.28
2018-07-20T23:39:23.714Z,100977.31
2018-07-20T23:41:53.098Z,100980.34
2018-07-20T23:44:22.797Z,100975.87
2018-07-20T23:46:52.161Z,100980.19
2018-07-20T23:49:21.489Z,100973.13
2018-07-20T23:51:50.948Z,100975.31
2018-07-20T23:54:20.435Z,100982.95
2018-07-20T23:56:49.834Z,100982.08
2018-07-20T23:59:19.340Z,100982.53
